sensor_id;sensor_type;location;lat;lon;timestamp;P1;durP1;ratioP1;P2;durP2;ratioP2
4616;SDS011;2321;42.704;23.384;2023-07-16T00:01:42;1105.80;;;939.33;;
4616;SDS011;2321;42.704;23.384;2023-07-16T00:04:09;1091.73;;;916.87;;
4616;SDS011;2321;42.704;23.384;2023-07-16T00:06:36;1069.67;;;840.67;;
4616;SDS011;2321;42.704;23.384;2023-07-16T00:09:04;1071.13;;;839.13;;
4616;SDS011;2321;42.704;23.384;2023-07-16T00:11:31;1123.03;;;974.70;;
4616;SDS011;2321;42.704;23.384;2023-07-16T00:13:58;1096.87;;;918.80;;
4616;SDS011;2321;42.704;23.384;2023-07-16T00:16:27;1102.37;;;941.30;;
4616;SDS011;2321;42.704;23.384;2023-07-16T00:18:57;1113.10;;;967.20;;
4616;SDS011;2321;42.704;23.384;2023-07-16T00:21:26;1068.63;;;869.63;;
4616;SDS011;2321;42.704;23.384;2023-07-16T00:23:53;1069.57;;;871.53;;
4616;SDS011;2321;42.704;23.384;2023-07-16T00:26:22;1063.43;;;838.07;;
4616;SDS011;2321;42.704;23.384;2023-07-16T00:28:49;1112.63;;;972.30;;
4616;SDS011;2321;42.704;23.384;2023-07-16T00:31:16;1063.47;;;844.87;;
4616;SDS011;2321;42.704;23.384;2023-07-16T00:33:43;1079.23;;;876.90;;
4616;SDS011;2321;42.704;23.384;2023-07-16T00:36:09;1077.37;;;878.87;;
4616;SDS011;2321;42.704;23.384;2023-07-16T00:38:36;1099.37;;;929.33;;
4616;SDS011;2321;42.704;23.384;2023-07-16T00:41:05;1081.37;;;890.63;;
4616;SDS011;2321;42.704;23.384;2023-07-16T00:43:33;1081.87;;;890.20;;
4616;SDS011;2321;42.704;23.384;2023-07-16T00:46:00;1077.37;;;882.57;;
4616;SDS011;2321;42.704;23.384;2023-07-16T00:48:27;1068.20;;;864.30;;
4616;SDS011;2321;42.704;23.384;2023-07-16T00:50:55;1075.90;;;887.27;;
4616;SDS011;2321;42.704;23.384;2023-07-16T00:53:22;1113.07;;;963.10;;
4616;SDS011;2321;42.704;23.384;2023-07-16T00:55:50;1086.57;;;892.77;;
4616;SDS011;2321;42.704;23.384;2023-07-16T00:58:17;1068.10;;;854.33;;
4616;SDS011;2321;42.704;23.384;2023-07-16T01:00:46;1120.33;;;984.10;;
4616;SDS011;2321;42.704;23.384;2023-07-16T01:03:13;1122.13;;;981.83;;
4616;SDS011;2321;42.704;23.384;2023-07-16T01:05:43;1083.80;;;896.13;;
4616;SDS011;2321;42.704;23.384;2023-07-16T01:08:17;1080.63;;;885.43;;
4616;SDS011;2321;42.704;23.384;2023-07-16T01:10:48;1077.43;;;875.97;;
4616;SDS011;2321;42.704;23.384;2023-07-16T01:13:15;1072.20;;;851.20;;
4616;SDS011;2321;42.704;23.384;2023-07-16T01:15:42;1082.40;;;898.37;;
4616;SDS011;2321;42.704;23.384;2023-07-16T01:18:11;1088.10;;;902.97;;
4616;SDS011;2321;42.704;23.384;2023-07-16T01:20:38;1071.50;;;881.63;;
4616;SDS011;2321;42.704;23.384;2023-07-16T01:23:10;1091.37;;;916.50;;
4616;SDS011;2321;42.704;23.384;2023-07-16T01:31:48;1068.73;;;862.80;;
4616;SDS011;2321;42.704;23.384;2023-07-16T01:34:17;1078.93;;;890.03;;
4616;SDS011;2321;42.704;23.384;2023-07-16T01:36:45;1078.17;;;882.83;;
4616;SDS011;2321;42.704;23.384;2023-07-16T01:39:13;1080.60;;;873.07;;
4616;SDS011;2321;42.704;23.384;2023-07-16T01:41:40;1083.27;;;883.97;;
4616;SDS011;2321;42.704;23.384;2023-07-16T01:44:07;1077.30;;;839.10;;
4616;SDS011;2321;42.704;23.384;2023-07-16T01:46:34;1073.70;;;842.40;;
4616;SDS011;2321;42.704;23.384;2023-07-16T01:49:02;1118.43;;;967.63;;
4616;SDS011;2321;42.704;23.384;2023-07-16T01:51:29;1072.57;;;876.70;;
4616;SDS011;2321;42.704;23.384;2023-07-16T01:53:56;1073.20;;;856.43;;
4616;SDS011;2321;42.704;23.384;2023-07-16T01:56:23;1019.23;;;780.70;;
4616;SDS011;2321;42.704;23.384;2023-07-16T01:58:49;1044.13;;;815.60;;
4616;SDS011;2321;42.704;23.384;2023-07-16T02:01:16;1071.93;;;838.93;;
4616;SDS011;2321;42.704;23.384;2023-07-16T02:03:43;1106.30;;;943.03;;
4616;SDS011;2321;42.704;23.384;2023-07-16T02:06:11;1110.77;;;954.00;;
4616;SDS011;2321;42.704;23.384;2023-07-16T02:08:39;1123.13;;;979.97;;
4616;SDS011;2321;42.704;23.384;2023-07-16T02:11:06;999.40;;;835.53;;
4616;SDS011;2321;42.704;23.384;2023-07-16T02:13:33;1089.93;;;865.03;;
4616;SDS011;2321;42.704;23.384;2023-07-16T02:16:00;1064.17;;;842.40;;
4616;SDS011;2321;42.704;23.384;2023-07-16T02:18:27;1095.87;;;920.77;;
4616;SDS011;2321;42.704;23.384;2023-07-16T02:20:54;1104.37;;;907.17;;
4616;SDS011;2321;42.704;23.384;2023-07-16T02:23:22;1103.10;;;891.63;;
4616;SDS011;2321;42.704;23.384;2023-07-16T02:25:49;1128.43;;;957.80;;
4616;SDS011;2321;42.704;23.384;2023-07-16T02:28:16;1088.20;;;884.90;;
4616;SDS011;2321;42.704;23.384;2023-07-16T02:30:42;1092.10;;;884.30;;
4616;SDS011;2321;42.704;23.384;2023-07-16T02:33:09;1096.80;;;913.67;;
4616;SDS011;2321;42.704;23.384;2023-07-16T02:35:36;1108.73;;;932.47;;
4616;SDS011;2321;42.704;23.384;2023-07-16T02:38:03;1111.03;;;951.67;;
4616;SDS011;2321;42.704;23.384;2023-07-16T02:40:31;1077.57;;;877.80;;
4616;SDS011;2321;42.704;23.384;2023-07-16T02:42:58;1054.20;;;814.30;;
4616;SDS011;2321;42.704;23.384;2023-07-16T02:45:25;1076.77;;;877.87;;
4616;SDS011;2321;42.704;23.384;2023-07-16T02:47:52;1058.77;;;829.80;;
4616;SDS011;2321;42.704;23.384;2023-07-16T02:50:19;1061.13;;;829.13;;
4616;SDS011;2321;42.704;23.384;2023-07-16T02:52:46;1057.73;;;829.77;;
4616;SDS011;2321;42.704;23.384;2023-07-16T02:55:12;1055.23;;;813.83;;
4616;SDS011;2321;42.704;23.384;2023-07-16T02:57:41;1096.70;;;900.33;;
4616;SDS011;2321;42.704;23.384;2023-07-16T03:00:08;1057.67;;;824.50;;
4616;SDS011;2321;42.704;23.384;2023-07-16T03:02:35;1060.67;;;832.87;;
4616;SDS011;2321;42.704;23.384;2023-07-16T03:05:02;1052.63;;;797.00;;
4616;SDS011;2321;42.704;23.384;2023-07-16T03:07:29;1096.87;;;914.60;;
4616;SDS011;2321;42.704;23.384;2023-07-16T03:09:56;1058.60;;;810.40;;
4616;SDS011;2321;42.704;23.384;2023-07-16T03:12:23;1071.40;;;849.13;;
4616;SDS011;2321;42.704;23.384;2023-07-16T03:14:51;1068.93;;;831.13;;
4616;SDS011;2321;42.704;23.384;2023-07-16T03:17:19;1049.27;;;781.93;;
4616;SDS011;2321;42.704;23.384;2023-07-16T03:19:47;1045.30;;;777.60;;
4616;SDS011;2321;42.704;23.384;2023-07-16T03:22:14;1095.30;;;917.30;;
4616;SDS011;2321;42.704;23.384;2023-07-16T03:24:41;1080.97;;;873.13;;
4616;SDS011;2321;42.704;23.384;2023-07-16T03:27:07;1068.63;;;829.60;;
4616;SDS011;2321;42.704;23.384;2023-07-16T03:29:34;1054.93;;;791.13;;
4616;SDS011;2321;42.704;23.384;2023-07-16T03:32:03;1061.37;;;796.63;;
4616;SDS011;2321;42.704;23.384;2023-07-16T03:34:30;1051.00;;;793.50;;
4616;SDS011;2321;42.704;23.384;2023-07-16T03:36:57;1052.57;;;783.50;;
4616;SDS011;2321;42.704;23.384;2023-07-16T03:39:24;1045.87;;;779.50;;
4616;SDS011;2321;42.704;23.384;2023-07-16T03:41:51;1052.70;;;788.40;;
4616;SDS011;2321;42.704;23.384;2023-07-16T03:44:18;1060.13;;;797.63;;
4616;SDS011;2321;42.704;23.384;2023-07-16T03:46:44;1072.87;;;835.07;;
4616;SDS011;2321;42.704;23.384;2023-07-16T03:49:13;1063.07;;;823.73;;
4616;SDS011;2321;42.704;23.384;2023-07-16T03:51:40;1097.33;;;892.27;;
4616;SDS011;2321;42.704;23.384;2023-07-16T03:54:06;1062.40;;;830.33;;
4616;SDS011;2321;42.704;23.384;2023-07-16T03:56:33;1062.40;;;822.03;;
4616;SDS011;2321;42.704;23.384;2023-07-16T03:59:00;1062.20;;;815.10;;
4616;SDS011;2321;42.704;23.384;2023-07-16T04:01:27;1032.43;;;759.20;;
4616;SDS011;2321;42.704;23.384;2023-07-16T04:03:54;1039.70;;;757.30;;
4616;SDS011;2321;42.704;23.384;2023-07-16T04:06:22;1048.37;;;786.10;;
4616;SDS011;2321;42.704;23.384;2023-07-16T04:08:49;1069.83;;;845.43;;
4616;SDS011;2321;42.704;23.384;2023-07-16T04:11:16;1075.20;;;854.00;;
4616;SDS011;2321;42.704;23.384;2023-07-16T04:13:43;1110.13;;;919.87;;
4616;SDS011;2321;42.704;23.384;2023-07-16T04:16:10;1138.63;;;968.93;;
4616;SDS011;2321;42.704;23.384;2023-07-16T04:18:37;1112.93;;;908.47;;
4616;SDS011;2321;42.704;23.384;2023-07-16T04:21:04;1097.53;;;866.43;;
4616;SDS011;2321;42.704;23.384;2023-07-16T04:23:32;1094.97;;;828.37;;
4616;SDS011;2321;42.704;23.384;2023-07-16T04:25:59;1092.03;;;877.00;;
4616;SDS011;2321;42.704;23.384;2023-07-16T04:28:26;1190.03;;;985.23;;
4616;SDS011;2321;42.704;23.384;2023-07-16T04:30:53;1139.27;;;944.43;;
4616;SDS011;2321;42.704;23.384;2023-07-16T04:33:19;1161.00;;;982.33;;
4616;SDS011;2321;42.704;23.384;2023-07-16T04:35:46;1092.90;;;859.70;;
4616;SDS011;2321;42.704;23.384;2023-07-16T04:38:13;1133.43;;;921.53;;
4616;SDS011;2321;42.704;23.384;2023-07-16T04:40:42;1100.90;;;888.43;;
4616;SDS011;2321;42.704;23.384;2023-07-16T04:43:09;1106.73;;;886.33;;
4616;SDS011;2321;42.704;23.384;2023-07-16T04:45:36;1096.53;;;892.83;;
4616;SDS011;2321;42.704;23.384;2023-07-16T04:48:05;1114.00;;;862.50;;
4616;SDS011;2321;42.704;23.384;2023-07-16T04:50:31;1056.60;;;808.60;;
4616;SDS011;2321;42.704;23.384;2023-07-16T04:52:58;1107.00;;;890.07;;
4616;SDS011;2321;42.704;23.384;2023-07-16T04:55:25;1086.40;;;862.83;;
4616;SDS011;2321;42.704;23.384;2023-07-16T04:57:53;1093.83;;;876.77;;
4616;SDS011;2321;42.704;23.384;2023-07-16T05:00:22;1148.90;;;989.57;;
4616;SDS011;2321;42.704;23.384;2023-07-16T05:02:49;1149.60;;;956.10;;
4616;SDS011;2321;42.704;23.384;2023-07-16T05:05:16;922.97;;;462.97;;
4616;SDS011;2321;42.704;23.384;2023-07-16T05:07:43;846.53;;;321.43;;
4616;SDS011;2321;42.704;23.384;2023-07-16T05:10:10;892.07;;;428.97;;
4616;SDS011;2321;42.704;23.384;2023-07-16T05:12:37;1007.57;;;431.50;;
4616;SDS011;2321;42.704;23.384;2023-07-16T05:15:06;928.03;;;419.83;;
4616;SDS011;2321;42.704;23.384;2023-07-16T05:17:34;941.87;;;459.03;;
4616;SDS011;2321;42.704;23.384;2023-07-16T05:20:01;1006.80;;;438.40;;
4616;SDS011;2321;42.704;23.384;2023-07-16T05:22:28;999.27;;;509.77;;
4616;SDS011;2321;42.704;23.384;2023-07-16T05:24:55;973.53;;;477.77;;
4616;SDS011;2321;42.704;23.384;2023-07-16T05:27:21;1047.00;;;537.27;;
4616;SDS011;2321;42.704;23.384;2023-07-16T05:29:48;946.50;;;476.70;;
4616;SDS011;2321;42.704;23.384;2023-07-16T05:32:16;941.70;;;487.80;;
4616;SDS011;2321;42.704;23.384;2023-07-16T05:34:43;864.90;;;405.13;;
4616;SDS011;2321;42.704;23.384;2023-07-16T05:37:10;1040.70;;;442.60;;
4616;SDS011;2321;42.704;23.384;2023-07-16T05:39:37;1030.03;;;491.43;;
4616;SDS011;2321;42.704;23.384;2023-07-16T05:42:05;1036.43;;;551.50;;
4616;SDS011;2321;42.704;23.384;2023-07-16T05:44:32;986.10;;;564.77;;
4616;SDS011;2321;42.704;23.384;2023-07-16T05:46:58;1020.70;;;603.10;;
4616;SDS011;2321;42.704;23.384;2023-07-16T05:49:27;991.07;;;663.50;;
4616;SDS011;2321;42.704;23.384;2023-07-16T05:51:53;838.70;;;337.90;;
4616;SDS011;2321;42.704;23.384;2023-07-16T05:54:21;915.23;;;403.10;;
4616;SDS011;2321;42.704;23.384;2023-07-16T05:56:48;877.43;;;414.53;;
4616;SDS011;2321;42.704;23.384;2023-07-16T05:59:15;923.93;;;499.23;;
4616;SDS011;2321;42.704;23.384;2023-07-16T06:01:42;988.37;;;560.63;;
4616;SDS011;2321;42.704;23.384;2023-07-16T06:04:09;1147.53;;;950.40;;
4616;SDS011;2321;42.704;23.384;2023-07-16T06:06:37;1153.00;;;888.87;;
4616;SDS011;2321;42.704;23.384;2023-07-16T06:09:04;962.07;;;585.60;;
4616;SDS011;2321;42.704;23.384;2023-07-16T06:11:31;948.93;;;511.33;;
4616;SDS011;2321;42.704;23.384;2023-07-16T06:13:57;1120.93;;;843.43;;
4616;SDS011;2321;42.704;23.384;2023-07-16T06:16:24;1139.07;;;992.27;;
4616;SDS011;2321;42.704;23.384;2023-07-16T06:18:51;1163.27;;;999.90;;
4616;SDS011;2321;42.704;23.384;2023-07-16T06:21:18;1159.23;;;999.90;;
4616;SDS011;2321;42.704;23.384;2023-07-16T06:23:46;1057.07;;;922.43;;
4616;SDS011;2321;42.704;23.384;2023-07-16T06:26:13;1122.13;;;850.30;;
4616;SDS011;2321;42.704;23.384;2023-07-16T06:28:40;1139.37;;;963.87;;
4616;SDS011;2321;42.704;23.384;2023-07-16T06:31:07;1115.00;;;918.77;;
4616;SDS011;2321;42.704;23.384;2023-07-16T06:33:33;1186.70;;;999.90;;
4616;SDS011;2321;42.704;23.384;2023-07-16T06:36:00;1140.43;;;999.00;;
4616;SDS011;2321;42.704;23.384;2023-07-16T06:38:27;1148.03;;;996.90;;
4616;SDS011;2321;42.704;23.384;2023-07-16T06:40:56;1192.83;;;999.90;;
4616;SDS011;2321;42.704;23.384;2023-07-16T06:43:23;1111.27;;;927.53;;
4616;SDS011;2321;42.704;23.384;2023-07-16T06:45:50;1082.37;;;913.00;;
4616;SDS011;2321;42.704;23.384;2023-07-16T06:48:17;1128.93;;;996.33;;
4616;SDS011;2321;42.704;23.384;2023-07-16T06:50:44;1207.17;;;999.90;;
4616;SDS011;2321;42.704;23.384;2023-07-16T06:53:11;1115.27;;;939.30;;
4616;SDS011;2321;42.704;23.384;2023-07-16T06:55:37;1105.40;;;948.07;;
4616;SDS011;2321;42.704;23.384;2023-07-16T06:58:09;1100.57;;;928.07;;
4616;SDS011;2321;42.704;23.384;2023-07-16T07:00:37;1122.90;;;950.67;;
4616;SDS011;2321;42.704;23.384;2023-07-16T07:03:04;1128.87;;;936.20;;
4616;SDS011;2321;42.704;23.384;2023-07-16T07:05:30;1123.67;;;950.97;;
4616;SDS011;2321;42.704;23.384;2023-07-16T07:07:57;1171.00;;;996.03;;
4616;SDS011;2321;42.704;23.384;2023-07-16T07:10:24;1141.27;;;934.47;;
4616;SDS011;2321;42.704;23.384;2023-07-16T07:12:51;1029.47;;;688.93;;
4616;SDS011;2321;42.704;23.384;2023-07-16T07:15:19;1078.53;;;891.47;;
4616;SDS011;2321;42.704;23.384;2023-07-16T07:17:46;1001.47;;;631.50;;
4616;SDS011;2321;42.704;23.384;2023-07-16T07:20:14;1125.10;;;963.87;;
4616;SDS011;2321;42.704;23.384;2023-07-16T07:22:40;1071.87;;;858.87;;
4616;SDS011;2321;42.704;23.384;2023-07-16T07:25:09;1100.77;;;924.10;;
4616;SDS011;2321;42.704;23.384;2023-07-16T07:27:36;1142.53;;;958.97;;
4616;SDS011;2321;42.704;23.384;2023-07-16T07:30:03;1123.70;;;965.03;;
4616;SDS011;2321;42.704;23.384;2023-07-16T07:32:32;1187.70;;;999.90;;
4616;SDS011;2321;42.704;23.384;2023-07-16T07:34:59;1149.33;;;999.90;;
4616;SDS011;2321;42.704;23.384;2023-07-16T07:37:26;1095.13;;;956.97;;
4616;SDS011;2321;42.704;23.384;2023-07-16T07:39:58;1153.77;;;999.90;;
4616;SDS011;2321;42.704;23.384;2023-07-16T07:42:25;1163.70;;;999.90;;
4616;SDS011;2321;42.704;23.384;2023-07-16T07:44:53;1160.53;;;999.90;;
4616;SDS011;2321;42.704;23.384;2023-07-16T07:47:20;1163.60;;;999.90;;
4616;SDS011;2321;42.704;23.384;2023-07-16T07:49:48;1172.27;;;999.90;;
4616;SDS011;2321;42.704;23.384;2023-07-16T07:52:15;1088.43;;;966.60;;
4616;SDS011;2321;42.704;23.384;2023-07-16T07:54:42;1174.60;;;999.90;;
4616;SDS011;2321;42.704;23.384;2023-07-16T07:57:12;1181.47;;;999.90;;
4616;SDS011;2321;42.704;23.384;2023-07-16T07:59:39;1107.80;;;986.37;;
4616;SDS011;2321;42.704;23.384;2023-07-16T08:02:06;1198.10;;;999.90;;
4616;SDS011;2321;42.704;23.384;2023-07-16T08:04:33;1159.23;;;999.90;;
4616;SDS011;2321;42.704;23.384;2023-07-16T08:07:01;1233.33;;;999.90;;
4616;SDS011;2321;42.704;23.384;2023-07-16T08:09:28;1116.70;;;992.13;;
4616;SDS011;2321;42.704;23.384;2023-07-16T08:11:55;1110.77;;;988.90;;
4616;SDS011;2321;42.704;23.384;2023-07-16T08:14:22;1191.07;;;999.90;;
4616;SDS011;2321;42.704;23.384;2023-07-16T08:16:49;1163.63;;;999.90;;
4616;SDS011;2321;42.704;23.384;2023-07-16T08:19:16;1158.13;;;999.90;;
4616;SDS011;2321;42.704;23.384;2023-07-16T08:21:43;1164.63;;;999.90;;
4616;SDS011;2321;42.704;23.384;2023-07-16T08:24:12;1218.53;;;999.90;;
4616;SDS011;2321;42.704;23.384;2023-07-16T08:26:39;1163.80;;;999.90;;
4616;SDS011;2321;42.704;23.384;2023-07-16T08:29:05;1244.33;;;999.90;;
4616;SDS011;2321;42.704;23.384;2023-07-16T08:31:32;1132.77;;;998.43;;
4616;SDS011;2321;42.704;23.384;2023-07-16T08:33:59;1169.43;;;999.90;;
4616;SDS011;2321;42.704;23.384;2023-07-16T08:36:26;1119.73;;;993.80;;
4616;SDS011;2321;42.704;23.384;2023-07-16T08:38:53;1104.57;;;985.07;;
4616;SDS011;2321;42.704;23.384;2023-07-16T08:41:21;1093.77;;;974.73;;
4616;SDS011;2321;42.704;23.384;2023-07-16T08:43:48;1210.97;;;999.90;;
4616;SDS011;2321;42.704;23.384;2023-07-16T08:46:15;1155.23;;;999.90;;
4616;SDS011;2321;42.704;23.384;2023-07-16T08:48:42;1101.30;;;982.77;;
4616;SDS011;2321;42.704;23.384;2023-07-16T08:51:10;1128.00;;;997.83;;
4616;SDS011;2321;42.704;23.384;2023-07-16T08:53:41;1182.17;;;999.90;;
4616;SDS011;2321;42.704;23.384;2023-07-16T08:56:12;1203.57;;;999.90;;
4616;SDS011;2321;42.704;23.384;2023-07-16T08:58:40;1230.03;;;999.90;;
4616;SDS011;2321;42.704;23.384;2023-07-16T09:01:10;1128.93;;;998.33;;
4616;SDS011;2321;42.704;23.384;2023-07-16T09:03:37;1167.20;;;999.90;;
4616;SDS011;2321;42.704;23.384;2023-07-16T09:06:04;1210.23;;;999.90;;
4616;SDS011;2321;42.704;23.384;2023-07-16T09:08:31;1160.77;;;999.90;;
4616;SDS011;2321;42.704;23.384;2023-07-16T09:10:58;1170.93;;;999.90;;
4616;SDS011;2321;42.704;23.384;2023-07-16T09:13:25;1110.27;;;990.40;;
4616;SDS011;2321;42.704;23.384;2023-07-16T09:15:54;1186.83;;;999.90;;
4616;SDS011;2321;42.704;23.384;2023-07-16T09:18:23;1202.43;;;999.90;;
4616;SDS011;2321;42.704;23.384;2023-07-16T09:20:53;1115.63;;;994.67;;
4616;SDS011;2321;42.704;23.384;2023-07-16T09:23:23;1136.50;;;999.90;;
4616;SDS011;2321;42.704;23.384;2023-07-16T09:25:51;1213.47;;;999.90;;
4616;SDS011;2321;42.704;23.384;2023-07-16T09:28:18;1167.63;;;999.90;;
4616;SDS011;2321;42.704;23.384;2023-07-16T09:30:46;1210.47;;;999.90;;
4616;SDS011;2321;42.704;23.384;2023-07-16T09:33:15;1110.97;;;992.47;;
4616;SDS011;2321;42.704;23.384;2023-07-16T09:35:43;1141.03;;;999.90;;
4616;SDS011;2321;42.704;23.384;2023-07-16T09:38:10;1181.63;;;999.90;;
4616;SDS011;2321;42.704;23.384;2023-07-16T09:40:37;1240.33;;;999.90;;
4616;SDS011;2321;42.704;23.384;2023-07-16T09:43:07;1170.13;;;999.90;;
4616;SDS011;2321;42.704;23.384;2023-07-16T09:45:35;1183.70;;;999.90;;
4616;SDS011;2321;42.704;23.384;2023-07-16T09:48:02;1127.23;;;998.50;;
4616;SDS011;2321;42.704;23.384;2023-07-16T09:50:32;1109.87;;;990.50;;
4616;SDS011;2321;42.704;23.384;2023-07-16T09:53:00;1166.90;;;999.90;;
4616;SDS011;2321;42.704;23.384;2023-07-16T09:55:28;1141.20;;;999.90;;
4616;SDS011;2321;42.704;23.384;2023-07-16T09:57:57;1181.40;;;999.90;;
4616;SDS011;2321;42.704;23.384;2023-07-16T10:00:26;1140.67;;;999.90;;
4616;SDS011;2321;42.704;23.384;2023-07-16T10:02:54;1230.87;;;999.90;;
4616;SDS011;2321;42.704;23.384;2023-07-16T10:05:24;1250.43;;;999.90;;
4616;SDS011;2321;42.704;23.384;2023-07-16T10:07:53;1153.47;;;999.90;;
4616;SDS011;2321;42.704;23.384;2023-07-16T10:10:25;1233.03;;;999.90;;
4616;SDS011;2321;42.704;23.384;2023-07-16T10:12:55;1160.07;;;999.90;;
4616;SDS011;2321;42.704;23.384;2023-07-16T10:15:26;1234.03;;;999.90;;
4616;SDS011;2321;42.704;23.384;2023-07-16T10:17:53;1224.73;;;999.90;;
4616;SDS011;2321;42.704;23.384;2023-07-16T10:20:30;1156.53;;;999.90;;
4616;SDS011;2321;42.704;23.384;2023-07-16T10:23:09;1148.57;;;999.90;;
4616;SDS011;2321;42.704;23.384;2023-07-16T10:25:37;1239.57;;;999.90;;
4616;SDS011;2321;42.704;23.384;2023-07-16T10:28:04;1253.63;;;999.90;;
4616;SDS011;2321;42.704;23.384;2023-07-16T10:30:32;1239.60;;;999.90;;
4616;SDS011;2321;42.704;23.384;2023-07-16T10:33:02;1193.80;;;999.90;;
4616;SDS011;2321;42.704;23.384;2023-07-16T10:35:34;1222.63;;;999.90;;
4616;SDS011;2321;42.704;23.384;2023-07-16T10:38:03;1204.27;;;999.90;;
4616;SDS011;2321;42.704;23.384;2023-07-16T10:40:30;1178.77;;;999.90;;
4616;SDS011;2321;42.704;23.384;2023-07-16T10:42:57;1195.50;;;999.90;;
4616;SDS011;2321;42.704;23.384;2023-07-16T10:45:24;1197.27;;;999.90;;
4616;SDS011;2321;42.704;23.384;2023-07-16T10:47:52;1157.67;;;999.90;;
4616;SDS011;2321;42.704;23.384;2023-07-16T10:50:20;1243.80;;;999.90;;
4616;SDS011;2321;42.704;23.384;2023-07-16T10:52:50;1168.57;;;999.90;;
4616;SDS011;2321;42.704;23.384;2023-07-16T10:55:20;1196.23;;;999.90;;
4616;SDS011;2321;42.704;23.384;2023-07-16T10:57:48;1194.93;;;999.90;;
4616;SDS011;2321;42.704;23.384;2023-07-16T11:00:16;1259.50;;;999.90;;
4616;SDS011;2321;42.704;23.384;2023-07-16T11:02:44;1213.03;;;999.90;;
4616;SDS011;2321;42.704;23.384;2023-07-16T11:05:11;1197.90;;;999.90;;
4616;SDS011;2321;42.704;23.384;2023-07-16T11:07:42;1168.70;;;999.90;;
4616;SDS011;2321;42.704;23.384;2023-07-16T11:10:09;1202.00;;;999.90;;
4616;SDS011;2321;42.704;23.384;2023-07-16T11:12:38;1202.73;;;999.90;;
4616;SDS011;2321;42.704;23.384;2023-07-16T11:15:05;1186.73;;;999.90;;
4616;SDS011;2321;42.704;23.384;2023-07-16T11:17:33;1234.90;;;999.90;;
4616;SDS011;2321;42.704;23.384;2023-07-16T11:20:00;1206.80;;;999.90;;
4616;SDS011;2321;42.704;23.384;2023-07-16T11:22:28;1200.13;;;999.90;;
4616;SDS011;2321;42.704;23.384;2023-07-16T11:24:55;1201.33;;;999.90;;
4616;SDS011;2321;42.704;23.384;2023-07-16T11:27:22;1245.60;;;999.90;;
4616;SDS011;2321;42.704;23.384;2023-07-16T11:29:53;1202.07;;;999.90;;
4616;SDS011;2321;42.704;23.384;2023-07-16T11:32:30;1239.13;;;999.90;;
4616;SDS011;2321;42.704;23.384;2023-07-16T11:34:58;1235.83;;;999.90;;
4616;SDS011;2321;42.704;23.384;2023-07-16T11:37:26;1196.33;;;999.90;;
4616;SDS011;2321;42.704;23.384;2023-07-16T11:39:56;1165.40;;;999.90;;
4616;SDS011;2321;42.704;23.384;2023-07-16T11:42:27;1234.50;;;999.90;;
4616;SDS011;2321;42.704;23.384;2023-07-16T11:44:56;1254.93;;;999.90;;
4616;SDS011;2321;42.704;23.384;2023-07-16T11:47:23;1195.33;;;999.90;;
4616;SDS011;2321;42.704;23.384;2023-07-16T11:49:50;1190.37;;;999.90;;
4616;SDS011;2321;42.704;23.384;2023-07-16T11:52:18;1164.40;;;999.90;;
4616;SDS011;2321;42.704;23.384;2023-07-16T11:54:46;1246.23;;;999.90;;
4616;SDS011;2321;42.704;23.384;2023-07-16T11:57:13;1206.67;;;999.90;;
4616;SDS011;2321;42.704;23.384;2023-07-16T11:59:41;1208.47;;;999.90;;
4616;SDS011;2321;42.704;23.384;2023-07-16T12:02:10;1250.17;;;999.90;;
4616;SDS011;2321;42.704;23.384;2023-07-16T12:04:36;1181.37;;;999.90;;
4616;SDS011;2321;42.704;23.384;2023-07-16T12:07:03;1191.73;;;999.90;;
4616;SDS011;2321;42.704;23.384;2023-07-16T12:09:31;1256.27;;;999.90;;
4616;SDS011;2321;42.704;23.384;2023-07-16T12:11:59;1199.37;;;999.90;;
4616;SDS011;2321;42.704;23.384;2023-07-16T12:14:26;1256.47;;;999.90;;
4616;SDS011;2321;42.704;23.384;2023-07-16T12:16:53;1199.47;;;999.90;;
4616;SDS011;2321;42.704;23.384;2023-07-16T12:19:22;1211.37;;;999.90;;
4616;SDS011;2321;42.704;23.384;2023-07-16T12:21:50;1194.20;;;999.90;;
4616;SDS011;2321;42.704;23.384;2023-07-16T12:24:17;1198.77;;;999.90;;
4616;SDS011;2321;42.704;23.384;2023-07-16T12:26:44;1260.20;;;999.90;;
4616;SDS011;2321;42.704;23.384;2023-07-16T12:29:11;1182.37;;;999.90;;
4616;SDS011;2321;42.704;23.384;2023-07-16T12:31:38;1207.53;;;999.90;;
4616;SDS011;2321;42.704;23.384;2023-07-16T12:34:05;1211.33;;;999.90;;
4616;SDS011;2321;42.704;23.384;2023-07-16T12:36:33;1214.23;;;999.90;;
4616;SDS011;2321;42.704;23.384;2023-07-16T12:39:00;1176.53;;;999.90;;
4616;SDS011;2321;42.704;23.384;2023-07-16T12:41:27;1196.87;;;999.90;;
4616;SDS011;2321;42.704;23.384;2023-07-16T12:43:54;1183.00;;;999.90;;
4616;SDS011;2321;42.704;23.384;2023-07-16T12:46:21;1172.10;;;999.90;;
4616;SDS011;2321;42.704;23.384;2023-07-16T12:48:48;1185.27;;;999.90;;
4616;SDS011;2321;42.704;23.384;2023-07-16T12:51:15;1139.70;;;999.90;;
4616;SDS011;2321;42.704;23.384;2023-07-16T12:53:44;1178.50;;;999.90;;
4616;SDS011;2321;42.704;23.384;2023-07-16T12:56:11;1253.93;;;999.90;;
4616;SDS011;2321;42.704;23.384;2023-07-16T12:58:38;1218.37;;;999.90;;
4616;SDS011;2321;42.704;23.384;2023-07-16T13:01:06;1253.90;;;999.90;;
4616;SDS011;2321;42.704;23.384;2023-07-16T13:03:34;1146.50;;;999.90;;
4616;SDS011;2321;42.704;23.384;2023-07-16T13:06:01;1188.73;;;999.90;;
4616;SDS011;2321;42.704;23.384;2023-07-16T13:08:29;1204.93;;;999.90;;
4616;SDS011;2321;42.704;23.384;2023-07-16T13:10:57;1207.07;;;999.90;;
4616;SDS011;2321;42.704;23.384;2023-07-16T13:13:25;1171.47;;;999.90;;
4616;SDS011;2321;42.704;23.384;2023-07-16T13:15:52;1204.57;;;999.90;;
4616;SDS011;2321;42.704;23.384;2023-07-16T13:18:20;1193.67;;;999.90;;
4616;SDS011;2321;42.704;23.384;2023-07-16T13:20:47;1212.80;;;999.90;;
4616;SDS011;2321;42.704;23.384;2023-07-16T13:23:13;1117.50;;;996.07;;
4616;SDS011;2321;42.704;23.384;2023-07-16T13:25:40;1156.33;;;999.90;;
4616;SDS011;2321;42.704;23.384;2023-07-16T13:28:09;1065.77;;;953.23;;
4616;SDS011;2321;42.704;23.384;2023-07-16T13:30:36;1027.63;;;917.47;;
4616;SDS011;2321;42.704;23.384;2023-07-16T13:33:02;1131.90;;;999.90;;
4616;SDS011;2321;42.704;23.384;2023-07-16T13:35:29;1193.23;;;999.90;;
4616;SDS011;2321;42.704;23.384;2023-07-16T13:37:56;1099.97;;;984.30;;
4616;SDS011;2321;42.704;23.384;2023-07-16T13:40:23;1116.23;;;995.13;;
4616;SDS011;2321;42.704;23.384;2023-07-16T13:42:50;1174.23;;;999.90;;
4616;SDS011;2321;42.704;23.384;2023-07-16T13:45:22;1172.97;;;999.90;;
4616;SDS011;2321;42.704;23.384;2023-07-16T13:47:49;1168.73;;;999.90;;
4616;SDS011;2321;42.704;23.384;2023-07-16T13:50:19;1130.37;;;999.90;;
4616;SDS011;2321;42.704;23.384;2023-07-16T13:52:46;1184.43;;;999.90;;
4616;SDS011;2321;42.704;23.384;2023-07-16T13:55:13;1131.57;;;999.90;;
4616;SDS011;2321;42.704;23.384;2023-07-16T13:57:39;1149.67;;;999.90;;
4616;SDS011;2321;42.704;23.384;2023-07-16T14:00:07;1087.10;;;970.80;;
4616;SDS011;2321;42.704;23.384;2023-07-16T14:02:36;1182.93;;;999.90;;
4616;SDS011;2321;42.704;23.384;2023-07-16T14:05:03;1138.00;;;999.90;;